Time;durP1;ratioP1;P1;durP2;ratioP2;P2;SDS_P1;SDS_P2;PMS_P1;PMS_P2;Temp;Humidity;BMP_temperature;BMP_pressure;BME280_temperature;BME280_humidity;BME280_pressure;Samples;Min_cycle;Max_cycle;Signal;HPM_P1;HPM_P2
2024/02/28 00:01:05;;;;;;;23.10;9.63;;;;;;;;;;5056829;28;20033;-81
2024/02/28 00:03:33;;;;;;;28.25;9.98;;;;;;;;;;5057413;28;20128;-81
2024/02/28 00:05:59;;;;;;;25.13;8.93;;;;;;;;;;5057744;28;20006;-80
2024/02/28 00:08:25;;;;;;;29.05;9.82;;;3.10;99.90;;;;;;5057732;28;20041;-80
2024/02/28 00:10:51;;;;;;;27.67;10.35;;;;;;;;;;5050438;28;20034;-80
2024/02/28 00:13:17;;;;;;;24.80;9.90;;;;;;;;;;5034055;28;20127;-80
2024/02/28 00:15:43;;;;;;;30.95;10.63;;;2.90;99.90;;;;;;5033806;28;20110;-80
2024/02/28 00:18:08;;;;;;;28.70;10.48;;;2.90;99.90;;;;;;5034451;28;20487;-79
2024/02/28 00:20:34;;;;;;;29.35;11.10;;;2.80;99.90;;;;;;5034370;28;20026;-79
2024/02/28 00:22:59;;;;;;;26.67;10.43;;;2.80;99.90;;;;;;5034124;28;20051;-79
2024/02/28 00:25:25;;;;;;;29.75;11.05;;;2.70;99.90;;;;;;5036197;28;20406;-79
2024/02/28 00:27:52;;;;;;;28.45;10.45;;;2.70;99.90;;;;;;5035471;28;20079;-79
2024/02/28 00:30:17;;;;;;;30.52;11.43;;;2.60;99.90;;;;;;5034974;28;20027;-79
2024/02/28 00:32:43;;;;;;;30.60;10.77;;;2.60;99.90;;;;;;5037375;28;20432;-79
2024/02/28 00:35:09;;;;;;;31.23;10.73;;;2.50;99.90;;;;;;5035775;28;20404;-79
2024/02/28 00:37:34;;;;;;;29.00;11.27;;;2.50;99.90;;;;;;5035035;28;20067;-80
2024/02/28 00:40:00;;;;;;;27.88;10.35;;;2.50;99.90;;;;;;5035706;28;20021;-80
2024/02/28 00:42:27;;;;;;;28.52;10.27;;;2.50;99.90;;;;;;5036208;28;20554;-80
2024/02/28 00:44:52;;;;;;;26.92;9.70;;;2.40;99.90;;;;;;5034593;28;20182;-80
2024/02/28 00:47:18;;;;;;;28.02;11.32;;;2.40;99.90;;;;;;5034611;28;20033;-80
2024/02/28 00:49:43;;;;;;;29.02;11.20;;;2.40;99.90;;;;;;5034247;28;20028;-80
2024/02/28 00:52:09;;;;;;;29.05;10.32;;;2.40;99.90;;;;;;5035406;28;20017;-80
2024/02/28 00:54:34;;;;;;;32.13;12.55;;;2.30;99.90;;;;;;5034902;28;20075;-80
2024/02/28 00:57:00;;;;;;;29.58;11.30;;;;;;;;;;5033637;28;20116;-79
2024/02/28 00:59:26;;;;;;;29.20;11.23;;;2.30;99.90;;;;;;5035027;28;20029;-79
2024/02/28 01:01:51;;;;;;;29.38;12.13;;;2.30;99.90;;;;;;5032827;28;20072;-79
2024/02/28 01:04:17;;;;;;;26.50;9.98;;;2.20;99.90;;;;;;5033435;28;20468;-80
2024/02/28 01:06:43;;;;;;;29.90;11.98;;;2.10;99.90;;;;;;5037620;28;20041;-79
2024/02/28 01:09:08;;;;;;;33.47;11.85;;;2.10;99.90;;;;;;5038735;28;20393;-80
2024/02/28 01:11:34;;;;;;;29.92;10.77;;;2.10;99.90;;;;;;5038151;28;20018;-80
2024/02/28 01:14:00;;;;;;;31.35;11.07;;;2.10;99.90;;;;;;5038361;28;20021;-80
2024/02/28 01:16:25;;;;;;;30.98;10.80;;;2.10;99.90;;;;;;5037304;28;20029;-79
2024/02/28 01:18:51;;;;;;;31.40;11.07;;;2.00;99.90;;;;;;5037838;28;20412;-79
2024/02/28 01:21:17;;;;;;;32.42;11.25;;;2.00;99.90;;;;;;5038299;28;20028;-80
2024/02/28 01:23:42;;;;;;;29.92;10.88;;;2.00;99.90;;;;;;5039311;28;20496;-79
2024/02/28 01:26:08;;;;;;;28.83;10.85;;;2.00;99.90;;;;;;5038752;28;20100;-80
2024/02/28 01:28:34;;;;;;;30.00;11.30;;;2.00;99.90;;;;;;5037565;28;20404;-80
2024/02/28 01:31:00;;;;;;;27.88;11.07;;;2.00;99.90;;;;;;5037271;28;20021;-80
2024/02/28 01:33:28;;;;;;;35.63;11.32;;;2.00;99.90;;;;;;5039121;28;20539;-80
2024/02/28 01:35:55;;;;;;;32.93;11.27;;;2.00;99.90;;;;;;5038764;28;20026;-80
2024/02/28 01:38:20;;;;;;;27.10;10.18;;;2.00;99.90;;;;;;5037588;28;20271;-80
2024/02/28 01:40:46;;;;;;;26.35;10.60;;;1.90;99.90;;;;;;5036785;28;20021;-80
2024/02/28 01:43:12;;;;;;;31.98;11.50;;;1.90;99.90;;;;;;5039020;28;20067;-80
2024/02/28 01:45:38;;;;;;;28.63;10.77;;;1.90;99.90;;;;;;5037921;28;20378;-80
2024/02/28 01:48:06;;;;;;;30.83;10.63;;;1.90;99.90;;;;;;5038545;28;20044;-80
2024/02/28 01:50:32;;;;;;;28.77;11.43;;;1.80;99.90;;;;;;5038722;28;20014;-80
2024/02/28 01:52:59;;;;;;;30.42;10.95;;;1.80;99.90;;;;;;5038867;28;20026;-80
2024/02/28 01:55:25;;;;;;;29.75;10.65;;;2.10;99.90;;;;;;5039118;28;20025;-80
2024/02/28 01:57:52;;;;;;;29.15;10.65;;;1.80;99.90;;;;;;5037463;28;20025;-80
2024/02/28 02:00:19;;;;;;;29.35;10.93;;;1.80;99.90;;;;;;5037439;28;20451;-80
2024/02/28 02:02:44;;;;;;;33.90;11.93;;;1.80;99.90;;;;;;5038155;28;20048;-80
2024/02/28 02:05:10;;;;;;;29.02;10.77;;;1.80;99.90;;;;;;5038320;28;20108;-81
2024/02/28 02:07:36;;;;;;;28.05;10.63;;;;;;;;;;5039213;28;20037;-81
2024/02/28 02:10:02;;;;;;;28.50;9.50;;;1.70;99.90;;;;;;5039658;28;20389;-81
2024/02/28 02:12:28;;;;;;;32.75;11.43;;;;;;;;;;5038978;28;20050;-81
2024/02/28 02:14:54;;;;;;;23.60;9.63;;;1.70;99.90;;;;;;5039812;28;20025;-81
2024/02/28 02:17:19;;;;;;;26.88;9.93;;;1.60;99.90;;;;;;5037250;28;20108;-80
2024/02/28 02:19:45;;;;;;;31.48;11.30;;;1.70;99.90;;;;;;5037406;28;20021;-81
2024/02/28 02:22:13;;;;;;;28.50;9.20;;;1.70;99.90;;;;;;5037891;28;20033;-81
2024/02/28 02:24:39;;;;;;;28.02;10.23;;;1.70;99.90;;;;;;5038547;28;20021;-81
2024/02/28 02:27:05;;;;;;;28.15;10.43;;;1.70;99.90;;;;;;5038795;28;20030;-80
2024/02/28 02:29:30;;;;;;;24.38;9.35;;;1.70;99.90;;;;;;5039205;28;20045;-80
2024/02/28 02:31:56;;;;;;;26.00;10.75;;;1.80;99.90;;;;;;5037259;28;20030;-80
2024/02/28 02:34:22;;;;;;;30.52;11.05;;;1.80;99.90;;;;;;5038697;28;20113;-78
2024/02/28 02:36:47;;;;;;;25.30;9.85;;;1.80;99.90;;;;;;5038704;28;20022;-78
2024/02/28 02:39:13;;;;;;;27.17;10.52;;;1.80;99.90;;;;;;5037817;28;20030;-80
2024/02/28 02:41:40;;;;;;;26.27;9.90;;;1.90;99.90;;;;;;5038160;28;20469;-80
2024/02/28 02:44:08;;;;;;;23.83;8.50;;;2.00;99.90;;;;;;5037855;28;20477;-79
2024/02/28 02:46:34;;;;;;;28.17;9.52;;;2.00;99.90;;;;;;5036678;28;20026;-78
2024/02/28 02:48:59;;;;;;;22.38;9.00;;;2.00;99.90;;;;;;5038202;28;20397;-78
2024/02/28 02:51:25;;;;;;;23.98;9.63;;;2.50;99.90;;;;;;5038848;28;20041;-78
2024/02/28 02:53:51;;;;;;;23.73;9.70;;;2.00;99.90;;;;;;5039340;28;20029;-79
2024/02/28 02:56:17;;;;;;;26.25;10.15;;;2.00;99.90;;;;;;5037850;28;20499;-79
2024/02/28 02:58:43;;;;;;;23.38;8.70;;;2.00;99.90;;;;;;5037910;28;20044;-78
2024/02/28 03:01:08;;;;;;;25.45;8.45;;;2.00;99.90;;;;;;5039667;28;20391;-78
2024/02/28 03:03:35;;;;;;;24.88;9.70;;;2.00;99.90;;;;;;5040047;28;20155;-78
2024/02/28 03:06:00;;;;;;;22.13;8.45;;;2.00;99.90;;;;;;5039107;28;20493;-79
2024/02/28 03:08:26;;;;;;;24.05;8.65;;;2.10;99.90;;;;;;5038830;28;20020;-80
2024/02/28 03:10:52;;;;;;;22.08;8.85;;;2.10;99.90;;;;;;5037450;28;20060;-79
2024/02/28 03:13:18;;;;;;;23.88;8.35;;;2.20;99.90;;;;;;5037497;28;20018;-79
2024/02/28 03:15:44;;;;;;;22.05;8.98;;;;;;;;;;5038876;28;20021;-80
2024/02/28 03:18:10;;;;;;;26.30;9.68;;;2.30;99.90;;;;;;5037124;28;20032;-80
2024/02/28 03:20:38;;;;;;;21.80;8.88;;;2.30;99.90;;;;;;5037378;28;20104;-79
2024/02/28 03:23:05;;;;;;;22.25;8.88;;;2.30;99.90;;;;;;5036507;28;20477;-79
2024/02/28 03:25:31;;;;;;;19.58;8.52;;;2.40;99.90;;;;;;5039505;28;20532;-79
2024/02/28 03:27:58;;;;;;;23.88;9.50;;;2.40;99.90;;;;;;5036954;28;20125;-79
2024/02/28 03:30:24;;;;;;;23.55;8.90;;;2.50;99.90;;;;;;5037327;28;20030;-79
2024/02/28 03:32:49;;;;;;;21.73;8.40;;;2.60;99.90;;;;;;5038105;28;20028;-80
2024/02/28 03:35:15;;;;;;;22.60;8.52;;;2.70;99.90;;;;;;5037099;28;20026;-79
2024/02/28 03:37:40;;;;;;;19.33;7.55;;;2.60;99.90;;;;;;5037851;28;20032;-79
2024/02/28 03:40:07;;;;;;;19.95;8.57;;;2.70;99.90;;;;;;5036753;28;20022;-79
2024/02/28 03:42:32;;;;;;;21.13;8.15;;;2.80;99.90;;;;;;5036667;28;20456;-79
2024/02/28 03:44:58;;;;;;;23.48;8.43;;;2.80;99.90;;;;;;5036821;28;20022;-79
2024/02/28 03:47:24;;;;;;;18.05;8.27;;;;;;;;;;5037680;28;20037;-79
2024/02/28 03:49:50;;;;;;;18.80;8.85;;;2.90;99.90;;;;;;5036185;28;20060;-79
2024/02/28 03:52:16;;;;;;;20.00;8.40;;;2.90;99.90;;;;;;5035830;28;20064;-79
2024/02/28 03:54:45;;;;;;;19.27;8.13;;;3.00;99.90;;;;;;5035648;28;20385;-79
2024/02/28 03:57:11;;;;;;;18.65;8.10;;;;;;;;;;5035737;28;20034;-79
2024/02/28 03:59:36;;;;;;;18.85;8.02;;;3.00;99.90;;;;;;5035498;28;20124;-79
2024/02/28 04:02:02;;;;;;;18.98;7.68;;;3.00;99.90;;;;;;5035699;28;20059;-79
2024/02/28 04:04:28;;;;;;;24.27;8.93;;;;;;;;;;5037743;28;20026;-79
2024/02/28 04:06:54;;;;;;;20.45;7.78;;;3.10;99.90;;;;;;5038019;28;20029;-79
2024/02/28 04:09:20;;;;;;;17.55;7.55;;;3.10;99.90;;;;;;5036712;28;20045;-79
2024/02/28 04:11:46;;;;;;;19.08;8.23;;;3.10;99.90;;;;;;5037496;28;20388;-79
2024/02/28 04:14:11;;;;;;;14.43;7.18;;;3.10;99.90;;;;;;5036508;28;20064;-79
2024/02/28 04:16:47;;;;;;;16.38;7.85;;;3.10;99.90;;;;;;5036560;28;20029;-79
2024/02/28 04:19:12;;;;;;;15.85;6.97;;;3.10;99.90;;;;;;5035725;28;20025;-79
2024/02/28 04:21:38;;;;;;;20.88;8.77;;;3.10;99.90;;;;;;5035276;28;20064;-79
2024/02/28 04:24:06;;;;;;;15.18;6.95;;;3.10;99.90;;;;;;5036769;28;20029;-79
2024/02/28 04:26:31;;;;;;;16.90;7.15;;;3.20;99.90;;;;;;5036551;28;20467;-79
2024/02/28 04:28:57;;;;;;;16.42;7.10;;;3.20;99.90;;;;;;5037019;28;20021;-79
2024/02/28 04:31:23;;;;;;;13.85;6.55;;;3.20;99.90;;;;;;5035275;28;20037;-79
2024/02/28 04:33:48;;;;;;;14.93;7.40;;;3.30;99.90;;;;;;5036277;28;20024;-79
2024/02/28 04:36:15;;;;;;;19.58;6.85;;;3.30;99.90;;;;;;5035294;28;20491;-79
2024/02/28 04:38:41;;;;;;;16.63;6.65;;;3.30;99.90;;;;;;5034722;28;20041;-79
2024/02/28 04:41:07;;;;;;;17.92;7.60;;;3.30;99.90;;;;;;5033860;28;20071;-79
2024/02/28 04:43:32;;;;;;;14.57;7.00;;;3.40;99.90;;;;;;5037006;28;20018;-79
2024/02/28 04:45:58;;;;;;;15.43;6.10;;;3.50;99.90;;;;;;5035309;28;20017;-79
2024/02/28 04:48:23;;;;;;;14.38;6.60;;;3.40;99.90;;;;;;5036132;28;20064;-79
2024/02/28 04:50:49;;;;;;;17.88;6.60;;;3.50;99.90;;;;;;5035242;28;20032;-79
2024/02/28 04:53:15;;;;;;;13.50;6.55;;;3.50;99.90;;;;;;5033771;28;20021;-79
2024/02/28 04:55:40;;;;;;;16.08;6.35;;;3.60;99.90;;;;;;5034855;28;20505;-79
2024/02/28 04:58:06;;;;;;;14.43;6.35;;;3.60;99.90;;;;;;5034537;28;20017;-80
2024/02/28 05:00:32;;;;;;;14.20;6.55;;;3.70;99.90;;;;;;5036033;28;20436;-80
2024/02/28 05:02:57;;;;;;;15.10;6.57;;;3.70;99.90;;;;;;5035317;28;20034;-79
2024/02/28 05:05:23;;;;;;;12.38;5.95;;;3.70;99.90;;;;;;5034691;28;20378;-79
2024/02/28 05:07:48;;;;;;;12.38;5.47;;;3.80;99.90;;;;;;5035842;28;20025;-79
2024/02/28 05:10:14;;;;;;;15.43;6.60;;;3.80;99.90;;;;;;5034357;28;20029;-79
2024/02/28 05:12:40;;;;;;;14.55;7.05;;;3.80;99.90;;;;;;5037199;28;20024;-79
2024/02/28 05:15:06;;;;;;;12.27;6.53;;;3.80;99.90;;;;;;5035875;28;20380;-79
2024/02/28 05:17:32;;;;;;;12.85;5.82;;;3.90;99.90;;;;;;5036021;28;20022;-79
2024/02/28 05:19:58;;;;;;;12.10;6.10;;;3.90;99.90;;;;;;5035363;28;20032;-79
2024/02/28 05:22:24;;;;;;;12.25;6.30;;;;;;;;;;5036235;28;20029;-79
2024/02/28 05:24:50;;;;;;;19.65;6.88;;;3.90;99.90;;;;;;5035044;28;20408;-79
2024/02/28 05:27:15;;;;;;;17.25;7.00;;;3.90;99.90;;;;;;5034429;28;20029;-79
2024/02/28 05:29:42;;;;;;;11.18;5.93;;;4.80;99.90;;;;;;5036278;28;20017;-79
2024/02/28 05:32:09;;;;;;;13.63;6.32;;;4.00;99.90;;;;;;5034893;28;20018;-79
2024/02/28 05:34:34;;;;;;;14.00;6.25;;;4.70;99.90;;;;;;5035804;28;20541;-79
2024/02/28 05:37:00;;;;;;;14.68;6.47;;;4.00;99.90;;;;;;5034806;28;20068;-79
2024/02/28 05:39:29;;;;;;;15.43;6.68;;;4.10;99.90;;;;;;5035306;28;20503;-79
2024/02/28 05:41:54;;;;;;;12.77;6.53;;;4.10;99.90;;;;;;5035652;28;20086;-80
2024/02/28 05:44:20;;;;;;;13.02;6.75;;;4.10;99.90;;;;;;5035087;28;20489;-79
2024/02/28 05:46:46;;;;;;;15.75;6.65;;;4.10;99.90;;;;;;5034587;28;20152;-79
2024/02/28 05:49:12;;;;;;;11.35;5.75;;;4.10;99.90;;;;;;5036177;28;20065;-79
2024/02/28 05:51:38;;;;;;;14.55;6.75;;;4.10;99.90;;;;;;5034619;28;20029;-79
2024/02/28 05:54:03;;;;;;;13.00;6.57;;;4.10;99.90;;;;;;5039428;28;20033;-79
2024/02/28 05:56:30;;;;;;;14.00;6.85;;;4.10;99.90;;;;;;5038653;28;20392;-80
2024/02/28 05:58:55;;;;;;;13.13;6.18;;;4.10;99.90;;;;;;5038299;28;20033;-79
2024/02/28 06:01:21;;;;;;;13.80;6.93;;;4.10;99.90;;;;;;5038582;28;20469;-79
2024/02/28 06:03:48;;;;;;;15.45;7.32;;;4.10;99.90;;;;;;5041685;28;20026;-81
2024/02/28 06:06:14;;;;;;;15.13;7.18;;;4.10;99.90;;;;;;5045965;28;20084;-81
2024/02/28 06:08:40;;;;;;;14.88;7.18;;;4.10;99.90;;;;;;5043091;28;20027;-80
2024/02/28 06:11:07;;;;;;;13.45;7.00;;;5.50;99.90;;;;;;5043578;28;20473;-80
2024/02/28 06:13:33;;;;;;;12.40;6.55;;;4.10;99.90;;;;;;5043036;28;20026;-81
2024/02/28 06:15:59;;;;;;;13.55;6.95;;;5.10;99.90;;;;;;5043460;28;20024;-81
2024/02/28 06:18:30;;;;;;;16.65;7.05;;;4.10;99.90;;;;;;5042887;28;20036;-80
2024/02/28 06:20:56;;;;;;;14.90;6.70;;;4.10;99.90;;;;;;5044326;28;20018;-80
2024/02/28 06:23:25;;;;;;;13.88;7.38;;;4.20;99.90;;;;;;5043499;28;20477;-80
2024/02/28 06:25:51;;;;;;;16.58;7.68;;;4.20;99.90;;;;;;5042945;28;20481;-81
2024/02/28 06:28:16;;;;;;;17.98;7.63;;;4.20;99.90;;;;;;5046970;28;20053;-81
2024/02/28 06:30:47;;;;;;;14.38;6.72;;;4.10;99.90;;;;;;5042564;28;20061;-81
2024/02/28 06:33:14;;;;;;;13.38;6.90;;;;;;;;;;5042081;28;20431;-80
2024/02/28 06:35:40;;;;;;;14.68;6.93;;;4.20;99.90;;;;;;5042275;28;20396;-80
2024/02/28 06:38:07;;;;;;;13.13;6.93;;;4.20;99.90;;;;;;5040718;28;20022;-81
2024/02/28 06:40:33;;;;;;;14.60;6.57;;;4.20;99.90;;;;;;5043042;28;20056;-80
2024/02/28 06:42:58;;;;;;;18.17;7.50;;;4.30;99.90;;;;;;5041906;28;20493;-81
2024/02/28 06:45:24;;;;;;;14.20;6.78;;;4.30;99.90;;;;;;5041583;28;20037;-81
2024/02/28 06:47:50;;;;;;;16.60;8.63;;;4.30;99.90;;;;;;5041832;28;20087;-81
2024/02/28 06:50:16;;;;;;;15.07;7.70;;;4.30;99.90;;;;;;5040412;28;20013;-81
2024/02/28 06:52:42;;;;;;;16.85;7.05;;;4.40;99.90;;;;;;5039577;28;20032;-81
2024/02/28 06:55:10;;;;;;;17.55;7.60;;;4.40;99.90;;;;;;5041411;28;20018;-81
2024/02/28 06:57:40;;;;;;;15.30;7.32;;;;;;;;;;5042060;28;20037;-82
2024/02/28 07:00:18;;;;;;;16.23;7.45;;;4.50;99.90;;;;;;5039587;28;20026;-80
2024/02/28 07:02:44;;;;;;;14.73;7.75;;;4.60;99.90;;;;;;5038820;28;20443;-80
2024/02/28 07:05:10;;;;;;;15.05;7.93;;;4.60;99.90;;;;;;5037606;28;20026;-81
2024/02/28 07:07:36;;;;;;;19.20;7.10;;;4.60;99.90;;;;;;5040281;28;20483;-81
2024/02/28 07:10:05;;;;;;;19.20;7.93;;;4.60;99.90;;;;;;5037996;28;20022;-80
2024/02/28 07:12:31;;;;;;;16.58;7.32;;;4.70;99.90;;;;;;5039011;28;20102;-81
2024/02/28 07:14:57;;;;;;;17.95;7.50;;;;;;;;;;5037291;28;20424;-81
2024/02/28 07:17:23;;;;;;;17.67;8.23;;;;;;;;;;5037561;28;20506;-81
2024/02/28 07:19:49;;;;;;;18.33;7.65;;;;;;;;;;5037445;28;20507;-81
2024/02/28 07:22:15;;;;;;;15.90;7.53;;;4.80;99.90;;;;;;5038510;28;20009;-81
2024/02/28 07:24:41;;;;;;;21.45;8.23;;;4.90;99.90;;;;;;5039493;28;20136;-81
2024/02/28 07:27:08;;;;;;;15.13;7.47;;;;;;;;;;5039153;28;20034;-81
2024/02/28 07:29:34;;;;;;;16.30;7.65;;;;;;;;;;5036990;28;20061;-82
2024/02/28 07:32:02;;;;;;;16.58;8.13;;;5.00;99.90;;;;;;5039909;28;20072;-82
2024/02/28 07:34:28;;;;;;;18.85;8.32;;;5.10;99.90;;;;;;5038853;28;20013;-82
2024/02/28 07:36:54;;;;;;;20.73;8.15;;;;;;;;;;5038956;28;20374;-81
2024/02/28 07:39:21;;;;;;;20.15;8.20;;;;;;;;;;5038503;28;20504;-81
2024/02/28 07:41:47;;;;;;;18.60;7.93;;;;;;;;;;5038536;28;20029;-81
2024/02/28 07:44:13;;;;;;;16.80;7.97;;;5.20;99.90;;;;;;5039382;28;20089;-81
2024/02/28 07:46:41;;;;;;;16.85;7.50;;;5.30;99.90;;;;;;5038532;28;20056;-81
2024/02/28 07:49:07;;;;;;;18.60;8.02;;;5.30;99.90;;;;;;5037806;28;20017;-82
2024/02/28 07:51:32;;;;;;;21.35;8.13;;;5.40;99.90;;;;;;5038011;28;20079;-82
2024/02/28 07:53:58;;;;;;;20.08;8.32;;;7.50;99.90;;;;;;5036802;28;20026;-80
2024/02/28 07:56:24;;;;;;;15.25;8.23;;;5.50;99.90;;;;;;5038509;28;20021;-81
2024/02/28 07:58:50;;;;;;;17.73;8.20;;;5.50;99.90;;;;;;5037978;28;20032;-81
2024/02/28 08:01:16;;;;;;;17.17;8.50;;;5.50;99.90;;;;;;5036916;28;20034;-81
2024/02/28 08:03:42;;;;;;;17.30;8.23;;;5.50;99.90;;;;;;5037337;28;20483;-82
2024/02/28 08:06:11;;;;;;;18.42;8.40;;;5.50;99.90;;;;;;5038155;28;20028;-82
2024/02/28 08:08:36;;;;;;;14.02;7.38;;;5.40;99.90;;;;;;5036327;28;20025;-81
2024/02/28 08:11:03;;;;;;;21.50;8.05;;;5.40;99.90;;;;;;5038386;28;20090;-82
2024/02/28 08:13:28;;;;;;;23.25;9.23;;;5.40;99.90;;;;;;5036537;28;20028;-82
2024/02/28 08:15:55;;;;;;;20.02;7.93;;;5.50;99.90;;;;;;5037387;28;20033;-81
2024/02/28 08:18:20;;;;;;;16.40;7.85;;;5.60;99.90;;;;;;5035886;28;20025;-82
2024/02/28 08:20:46;;;;;;;17.23;8.95;;;5.60;99.90;;;;;;5037593;28;20052;-81
2024/02/28 08:23:11;;;;;;;20.15;8.10;;;5.60;99.90;;;;;;5038119;28;20053;-81
2024/02/28 08:25:37;;;;;;;17.13;8.27;;;5.70;99.90;;;;;;5037006;28;20025;-82
2024/02/28 08:28:03;;;;;;;21.23;8.48;;;5.70;99.90;;;;;;5036506;28;20412;-81
2024/02/28 08:30:30;;;;;;;15.50;8.18;;;5.70;99.90;;;;;;5036583;28;20018;-82
2024/02/28 08:32:57;;;;;;;15.15;8.25;;;7.30;99.90;;;;;;5037815;28;20013;-82
2024/02/28 08:35:24;;;;;;;20.17;9.52;;;;;;;;;;5035668;28;20450;-81
2024/02/28 08:37:50;;;;;;;18.92;8.70;;;5.80;99.90;;;;;;5038175;28;20033;-81
2024/02/28 08:40:15;;;;;;;19.48;8.65;;;5.70;99.90;;;;;;5038502;28;20102;-82
2024/02/28 08:42:41;;;;;;;16.85;8.75;;;5.80;99.90;;;;;;5037913;28;20084;-82
2024/02/28 08:45:07;;;;;;;17.60;8.25;;;5.80;99.90;;;;;;5036892;28;20067;-81
2024/02/28 08:47:34;;;;;;;18.25;8.23;;;5.70;99.90;;;;;;5035987;28;20026;-79
2024/02/28 08:50:03;;;;;;;16.77;8.18;;;5.80;99.90;;;;;;5035045;28;20045;-79
2024/02/28 08:52:28;;;;;;;18.17;8.32;;;5.70;99.90;;;;;;5035975;28;20028;-79
2024/02/28 08:54:54;;;;;;;17.15;7.30;;;5.80;99.90;;;;;;5037043;28;20021;-80
2024/02/28 08:57:22;;;;;;;13.48;7.90;;;5.90;99.90;;;;;;5035933;28;20022;-79
2024/02/28 08:59:47;;;;;;;17.50;8.20;;;5.90;99.90;;;;;;5035454;28;20030;-79
2024/02/28 09:02:13;;;;;;;14.50;7.45;;;6.00;99.90;;;;;;5034452;28;20044;-79
2024/02/28 09:04:39;;;;;;;17.45;7.43;;;6.10;99.90;;;;;;5035786;28;20022;-79
2024/02/28 09:07:04;;;;;;;13.63;8.10;;;6.20;99.90;;;;;;5035663;28;20051;-79
2024/02/28 09:09:36;;;;;;;19.10;8.55;;;6.20;99.90;;;;;;5037108;28;20053;-79
2024/02/28 09:12:03;;;;;;;14.40;7.72;;;6.50;99.90;;;;;;5037192;28;20022;-80
2024/02/28 09:14:28;;;;;;;17.00;8.30;;;6.60;99.90;;;;;;5034940;28;20028;-80
2024/02/28 09:17:00;;;;;;;19.20;8.05;;;6.70;99.90;;;;;;5036168;28;20120;-79
2024/02/28 09:19:28;;;;;;;21.23;8.55;;;6.90;99.90;;;;;;5035693;28;20025;-79
2024/02/28 09:21:53;;;;;;;18.15;7.75;;;7.00;99.90;;;;;;5035555;28;20041;-80
2024/02/28 09:24:19;;;;;;;16.15;7.28;;;7.00;99.90;;;;;;5035739;28;20053;-80
2024/02/28 09:26:44;;;;;;;18.27;7.70;;;7.00;99.90;;;;;;5033570;28;20128;-81
2024/02/28 09:29:10;;;;;;;15.57;8.00;;;7.00;99.90;;;;;;5037839;28;20028;-79
2024/02/28 09:31:36;;;;;;;15.25;8.45;;;7.10;99.90;;;;;;5036141;28;20024;-78
2024/02/28 09:34:07;;;;;;;18.00;9.82;;;7.10;99.90;;;;;;5039757;28;20069;-81
2024/02/28 09:36:42;;;;;;;14.95;8.27;;;7.20;99.90;;;;;;5038906;28;20480;-81
2024/02/28 09:39:08;;;;;;;18.77;8.63;;;7.20;99.90;;;;;;5038155;28;20064;-79
2024/02/28 09:41:33;;;;;;;15.98;7.70;;;7.30;99.90;;;;;;5038687;28;20030;-80
2024/02/28 09:44:04;;;;;;;15.30;8.15;;;7.20;99.90;;;;;;5039946;28;20022;-81
2024/02/28 09:46:31;;;;;;;16.23;7.68;;;7.30;99.90;;;;;;5039265;28;20021;-81
2024/02/28 09:48:58;;;;;;;13.43;7.82;;;7.50;99.90;;;;;;5038749;28;20045;-81
2024/02/28 09:51:27;;;;;;;19.40;8.15;;;7.60;99.90;;;;;;5036697;28;20018;-78
2024/02/28 09:53:53;;;;;;;18.73;7.97;;;7.70;99.90;;;;;;5036985;28;20026;-79
2024/02/28 09:56:19;;;;;;;13.80;7.55;;;7.90;99.90;;;;;;5037632;28;20156;-79
2024/02/28 09:58:45;;;;;;;18.73;8.80;;;7.90;99.90;;;;;;5036255;28;20025;-81
2024/02/28 10:01:14;;;;;;;14.52;7.78;;;8.10;99.90;;;;;;5038985;28;20072;-78
2024/02/28 10:03:42;;;;;;;19.77;8.15;;;8.20;99.90;;;;;;5036417;28;20096;-78
2024/02/28 10:06:08;;;;;;;13.80;7.68;;;;;;;;;;5040038;28;20022;-79
2024/02/28 10:08:34;;;;;;;15.32;7.00;;;8.30;99.90;;;;;;5038007;28;20032;-80
2024/02/28 10:11:01;;;;;;;15.48;7.13;;;8.30;99.90;;;;;;5040120;28;20018;-81
2024/02/28 10:13:26;;;;;;;15.02;7.43;;;8.30;99.90;;;;;;5040232;28;20628;-80
2024/02/28 10:15:53;;;;;;;17.38;8.38;;;8.40;99.90;;;;;;5038448;28;20046;-80
2024/02/28 10:18:19;;;;;;;21.42;8.52;;;8.50;99.90;;;;;;5038553;28;20056;-81
2024/02/28 10:20:45;;;;;;;16.95;8.15;;;8.50;99.90;;;;;;5038034;28;20477;-80
2024/02/28 10:23:11;;;;;;;16.17;8.20;;;8.70;99.90;;;;;;5038907;28;20022;-80
2024/02/28 10:25:45;;;;;;;18.02;9.20;;;8.80;99.90;;;;;;5040088;28;20026;-80
2024/02/28 10:28:13;;;;;;;21.40;8.23;;;8.80;99.90;;;;;;5039923;28;20084;-81
2024/02/28 10:30:43;;;;;;;16.48;8.40;;;9.00;99.90;;;;;;5039062;28;20017;-80
2024/02/28 10:33:15;;;;;;;15.73;8.40;;;9.20;99.90;;;;;;5037915;28;20091;-78
2024/02/28 10:35:45;;;;;;;16.27;8.82;;;9.30;99.90;;;;;;5039136;28;20029;-80
2024/02/28 10:38:14;;;;;;;19.08;9.02;;;9.30;99.90;;;;;;5038238;28;20029;-81
2024/02/28 10:40:43;;;;;;;17.80;8.63;;;9.30;99.90;;;;;;5037457;28;20040;-80
2024/02/28 10:43:09;;;;;;;18.13;9.50;;;9.40;99.90;;;;;;5036613;28;20083;-79
2024/02/28 10:45:39;;;;;;;20.92;10.20;;;9.40;99.90;;;;;;5038405;28;20053;-81
2024/02/28 10:48:06;;;;;;;24.20;11.65;;;9.50;99.90;;;;;;5038103;28;20401;-81
2024/02/28 10:50:32;;;;;;;22.80;11.75;;;9.40;99.90;;;;;;5036843;28;20024;-79
2024/02/28 10:53:15;;;;;;;21.77;9.98;;;11.10;99.90;;;;;;5036617;28;20022;-78
2024/02/28 10:55:41;;;;;;;23.23;10.45;;;9.40;99.90;;;;;;5039013;28;20028;-81
2024/02/28 10:58:12;;;;;;;22.33;11.38;;;9.40;99.90;;;;;;5039881;28;20447;-81
2024/02/28 11:00:41;;;;;;;25.73;11.05;;;9.40;99.90;;;;;;5037257;28;20057;-78
2024/02/28 11:03:08;;;;;;;;;;;9.40;99.90;;;;;;5037523;28;20064;-81
2024/02/28 11:05:42;;;;;;;28.23;11.77;;;10.10;99.90;;;;;;5038149;28;19916;-81
2024/02/28 11:08:11;;;;;;;23.92;10.60;;;9.30;99.90;;;;;;5037661;28;20029;-81
2024/02/28 11:10:43;;;;;;;24.45;12.10;;;9.30;99.90;;;;;;5038116;28;20041;-80
2024/02/28 11:13:22;;;;;;;26.40;11.43;;;9.40;99.90;;;;;;5036686;28;20025;-78
2024/02/28 11:15:48;;;;;;;21.90;10.68;;;9.40;99.90;;;;;;5039205;28;20041;-79
2024/02/28 11:18:14;;;;;;;24.75;11.10;;;9.50;99.90;;;;;;5036312;28;20021;-78
2024/02/28 11:20:39;;;;;;;25.05;11.45;;;9.70;99.90;;;;;;5038587;28;20030;-80
2024/02/28 11:23:09;;;;;;;30.75;14.02;;;9.50;99.90;;;;;;5037123;28;20029;-81
2024/02/28 11:25:35;;;;;;;22.05;10.82;;;9.50;99.90;;;;;;5037160;28;20179;-80
2024/02/28 11:28:01;;;;;;;23.42;10.88;;;9.50;99.90;;;;;;5037072;28;20025;-80
2024/02/28 11:30:26;;;;;;;25.48;11.88;;;9.50;99.90;;;;;;5038419;28;20025;-80
2024/02/28 11:32:58;;;;;;;25.35;11.57;;;9.40;99.90;;;;;;5039286;28;20070;-80
2024/02/28 11:35:25;;;;;;;28.05;10.93;;;9.40;99.90;;;;;;5038936;28;20025;-80
2024/02/28 11:37:53;;;;;;;28.92;11.60;;;9.40;99.90;;;;;;5037951;28;20030;-80
2024/02/28 11:40:19;;;;;;;27.90;11.15;;;9.50;99.90;;;;;;5043718;28;20036;-81
2024/02/28 11:42:45;;;;;;;24.15;11.30;;;9.50;99.90;;;;;;5043818;28;20029;-82
2024/02/28 11:45:11;;;;;;;22.80;11.10;;;9.50;99.90;;;;;;5044130;28;20029;-82
2024/02/28 11:47:36;;;;;;;25.58;11.10;;;9.60;99.90;;;;;;5044289;28;20017;-82
2024/02/28 11:50:03;;;;;;;21.85;10.68;;;9.70;99.90;;;;;;5044642;28;20028;-81
2024/02/28 11:52:32;;;;;;;20.92;9.73;;;9.70;99.90;;;;;;5045842;28;20032;-80
2024/02/28 11:54:58;;;;;;;24.73;10.10;;;9.60;99.90;;;;;;5045575;28;20022;-80
2024/02/28 11:57:23;;;;;;;26.60;11.25;;;9.70;99.90;;;;;;5044145;28;20525;-79
2024/02/28 11:59:50;;;;;;;17.77;8.93;;;9.80;99.90;;;;;;5043616;28;20126;-80
2024/02/28 12:02:16;;;;;;;24.50;10.00;;;9.90;99.90;;;;;;5044163;28;20033;-80
2024/02/28 12:04:43;;;;;;;22.85;9.23;;;10.00;99.90;;;;;;5043038;28;20022;-79
2024/02/28 12:07:09;;;;;;;28.38;9.68;;;10.00;99.90;;;;;;5041568;28;20021;-80
2024/02/28 12:09:35;;;;;;;17.48;8.38;;;10.10;99.90;;;;;;5041383;28;20047;-80
2024/02/28 12:12:01;;;;;;;20.45;10.00;;;10.20;99.90;;;;;;5042465;28;20017;-80
2024/02/28 12:14:27;;;;;;;19.33;9.02;;;10.20;99.90;;;;;;5042208;28;20033;-80
2024/02/28 12:16:53;;;;;;;20.65;9.13;;;10.40;99.90;;;;;;5042294;28;20052;-80
2024/02/28 12:19:20;;;;;;;20.65;9.15;;;10.40;99.90;;;;;;5041699;28;20025;-80
2024/02/28 12:21:46;;;;;;;18.88;8.30;;;10.40;99.90;;;;;;5043174;28;20423;-80
2024/02/28 12:24:13;;;;;;;24.65;9.55;;;10.60;99.90;;;;;;5044407;28;20489;-80
2024/02/28 12:26:39;;;;;;;18.00;8.57;;;10.70;99.90;;;;;;5043400;28;20018;-80
2024/02/28 12:29:05;;;;;;;21.65;8.75;;;10.60;99.90;;;;;;5043083;28;20029;-80
2024/02/28 12:31:31;;;;;;;24.70;9.15;;;10.60;99.90;;;;;;5043513;28;20093;-79
2024/02/28 12:33:56;;;;;;;17.85;8.85;;;10.60;99.90;;;;;;5044130;28;20045;-80
2024/02/28 12:36:22;;;;;;;19.20;7.93;;;10.50;99.90;;;;;;5042398;28;20093;-80
2024/02/28 12:38:48;;;;;;;19.88;7.93;;;10.50;99.90;;;;;;5041611;28;20045;-80
2024/02/28 12:41:15;;;;;;;16.83;7.28;;;10.50;99.90;;;;;;5042568;28;20392;-80
2024/02/28 12:43:41;;;;;;;18.70;8.27;;;10.40;99.90;;;;;;5042088;28;20022;-80
2024/02/28 12:46:06;;;;;;;18.52;7.82;;;10.30;99.90;;;;;;5042058;28;20045;-80